Waremme, Belgium
Current Conditions -  °F | °C
As of 1:50 AM on Sunday 26 Oct 2014 (Local Time) from EBLG Reporting Station
Few Clouds Few Clouds  
Wind Chill: 10°   Ceiling: Unl
Heat Index: 10°   Visibility: 6mi
Dew Point:   Wind: 8mph
Humidity: 94%   Direction: 200°SSW
Pressure: 30.24"   Gusts: NA
Location:  50.7°N, 5.26°E
Report Text: EBLG 252350Z 20007KT 9000 FEW038 10/09 Q1024 NOSIG
Loading
Personal Weather Stations






























Interactive Weather Map
Tropical Storm Tracking
New forecast layout! Learn more

10-Day Weather Forecast

Advertisements
Track Severe Weather on mobile